sensor_id;sensor_type;location;lat;lon;timestamp;temperature;humidity
9949;DHT22;5013;51.840;8.276;2023-08-07T00:00:35;14.40;99.90
9949;DHT22;5013;51.840;8.276;2023-08-07T00:03:00;14.40;99.90
9949;DHT22;5013;51.840;8.276;2023-08-07T00:05:26;14.40;99.90
9949;DHT22;5013;51.840;8.276;2023-08-07T00:07:52;14.40;99.90
9949;DHT22;5013;51.840;8.276;2023-08-07T00:10:17;14.40;99.90
9949;DHT22;5013;51.840;8.276;2023-08-07T00:12:43;14.40;99.90
9949;DHT22;5013;51.840;8.276;2023-08-07T00:15:09;14.40;99.90
9949;DHT22;5013;51.840;8.276;2023-08-07T00:17:36;14.40;99.90
9949;DHT22;5013;51.840;8.276;2023-08-07T00:20:02;14.30;99.90
9949;DHT22;5013;51.840;8.276;2023-08-07T00:22:28;14.40;99.90
9949;DHT22;5013;51.840;8.276;2023-08-07T00:24:53;14.40;99.90
9949;DHT22;5013;51.840;8.276;2023-08-07T00:27:19;14.40;99.90
9949;DHT22;5013;51.840;8.276;2023-08-07T00:29:44;14.40;99.90
9949;DHT22;5013;51.840;8.276;2023-08-07T00:32:10;14.40;99.90
9949;DHT22;5013;51.840;8.276;2023-08-07T00:34:35;14.30;99.90
9949;DHT22;5013;51.840;8.276;2023-08-07T00:37:01;14.30;99.90
9949;DHT22;5013;51.840;8.276;2023-08-07T00:39:26;14.40;99.90
9949;DHT22;5013;51.840;8.276;2023-08-07T00:41:52;14.40;99.90
9949;DHT22;5013;51.840;8.276;2023-08-07T00:44:18;14.40;99.90
9949;DHT22;5013;51.840;8.276;2023-08-07T00:46:43;14.40;99.90
9949;DHT22;5013;51.840;8.276;2023-08-07T00:49:09;14.40;99.90
9949;DHT22;5013;51.840;8.276;2023-08-07T00:51:37;14.40;99.90
9949;DHT22;5013;51.840;8.276;2023-08-07T00:54:04;14.40;99.90
9949;DHT22;5013;51.840;8.276;2023-08-07T00:56:30;14.40;99.90
9949;DHT22;5013;51.840;8.276;2023-08-07T00:59:00;14.40;99.90
9949;DHT22;5013;51.840;8.276;2023-08-07T01:01:26;14.40;99.90
9949;DHT22;5013;51.840;8.276;2023-08-07T01:03:52;14.40;99.90
9949;DHT22;5013;51.840;8.276;2023-08-07T01:06:17;14.40;99.90
9949;DHT22;5013;51.840;8.276;2023-08-07T01:08:43;14.40;99.90
9949;DHT22;5013;51.840;8.276;2023-08-07T01:14:00;14.50;99.90
9949;DHT22;5013;51.840;8.276;2023-08-07T01:19:08;14.40;99.90
9949;DHT22;5013;51.840;8.276;2023-08-07T01:21:37;14.50;99.90
9949;DHT22;5013;51.840;8.276;2023-08-07T01:24:03;14.40;99.90
9949;DHT22;5013;51.840;8.276;2023-08-07T01:26:29;14.50;99.90
9949;DHT22;5013;51.840;8.276;2023-08-07T01:29:05;14.50;99.90
9949;DHT22;5013;51.840;8.276;2023-08-07T01:31:33;14.50;99.90
9949;DHT22;5013;51.840;8.276;2023-08-07T01:34:04;14.40;99.90
9949;DHT22;5013;51.840;8.276;2023-08-07T01:36:32;14.50;99.90
9949;DHT22;5013;51.840;8.276;2023-08-07T01:38:59;14.40;99.90
9949;DHT22;5013;51.840;8.276;2023-08-07T01:41:26;14.50;99.90
9949;DHT22;5013;51.840;8.276;2023-08-07T01:43:52;14.50;99.90
9949;DHT22;5013;51.840;8.276;2023-08-07T01:46:18;14.40;99.90
9949;DHT22;5013;51.840;8.276;2023-08-07T01:48:44;14.50;99.90
9949;DHT22;5013;51.840;8.276;2023-08-07T01:51:09;14.50;99.90
9949;DHT22;5013;51.840;8.276;2023-08-07T01:53:35;14.40;99.90
9949;DHT22;5013;51.840;8.276;2023-08-07T01:56:00;14.50;99.90
9949;DHT22;5013;51.840;8.276;2023-08-07T01:58:26;14.50;99.90
9949;DHT22;5013;51.840;8.276;2023-08-07T02:00:52;14.50;99.90
9949;DHT22;5013;51.840;8.276;2023-08-07T02:03:18;14.50;99.90
9949;DHT22;5013;51.840;8.276;2023-08-07T02:05:47;14.50;99.90
9949;DHT22;5013;51.840;8.276;2023-08-07T02:08:12;14.50;99.90
9949;DHT22;5013;51.840;8.276;2023-08-07T02:10:38;14.50;99.90
9949;DHT22;5013;51.840;8.276;2023-08-07T02:13:04;14.50;99.90
9949;DHT22;5013;51.840;8.276;2023-08-07T02:15:29;14.50;99.90
9949;DHT22;5013;51.840;8.276;2023-08-07T02:17:55;14.40;99.90
9949;DHT22;5013;51.840;8.276;2023-08-07T02:20:20;14.50;99.90
9949;DHT22;5013;51.840;8.276;2023-08-07T02:22:46;14.50;99.90
9949;DHT22;5013;51.840;8.276;2023-08-07T02:25:12;14.50;99.90
9949;DHT22;5013;51.840;8.276;2023-08-07T02:27:37;14.60;99.90
9949;DHT22;5013;51.840;8.276;2023-08-07T02:30:03;14.60;99.90
9949;DHT22;5013;51.840;8.276;2023-08-07T02:32:30;14.60;99.90
9949;DHT22;5013;51.840;8.276;2023-08-07T02:34:55;14.60;99.90
9949;DHT22;5013;51.840;8.276;2023-08-07T02:37:21;14.60;99.90
9949;DHT22;5013;51.840;8.276;2023-08-07T02:39:46;14.60;99.90
9949;DHT22;5013;51.840;8.276;2023-08-07T02:42:12;14.60;99.90
9949;DHT22;5013;51.840;8.276;2023-08-07T02:44:37;14.60;99.90
9949;DHT22;5013;51.840;8.276;2023-08-07T02:47:03;14.60;99.90
9949;DHT22;5013;51.840;8.276;2023-08-07T02:49:29;14.60;99.90
9949;DHT22;5013;51.840;8.276;2023-08-07T02:51:54;14.60;99.90
9949;DHT22;5013;51.840;8.276;2023-08-07T02:54:20;14.60;99.90
9949;DHT22;5013;51.840;8.276;2023-08-07T02:56:46;14.70;99.90
9949;DHT22;5013;51.840;8.276;2023-08-07T02:59:11;14.70;99.90
9949;DHT22;5013;51.840;8.276;2023-08-07T03:01:37;14.60;99.90
9949;DHT22;5013;51.840;8.276;2023-08-07T03:04:03;14.60;99.90
9949;DHT22;5013;51.840;8.276;2023-08-07T03:06:28;14.60;99.90
9949;DHT22;5013;51.840;8.276;2023-08-07T03:08:54;14.70;99.90
9949;DHT22;5013;51.840;8.276;2023-08-07T03:11:19;14.60;99.90
9949;DHT22;5013;51.840;8.276;2023-08-07T03:13:45;14.70;99.90
9949;DHT22;5013;51.840;8.276;2023-08-07T03:16:10;14.60;99.90
9949;DHT22;5013;51.840;8.276;2023-08-07T03:18:36;14.60;99.90
9949;DHT22;5013;51.840;8.276;2023-08-07T03:21:02;14.70;99.90
9949;DHT22;5013;51.840;8.276;2023-08-07T03:23:28;14.70;99.90
9949;DHT22;5013;51.840;8.276;2023-08-07T03:26:07;14.70;99.90
9949;DHT22;5013;51.840;8.276;2023-08-07T03:28:34;14.70;99.90
9949;DHT22;5013;51.840;8.276;2023-08-07T03:31:00;14.80;99.90
9949;DHT22;5013;51.840;8.276;2023-08-07T03:33:26;14.70;99.90
9949;DHT22;5013;51.840;8.276;2023-08-07T03:35:51;14.80;99.90
9949;DHT22;5013;51.840;8.276;2023-08-07T03:38:18;14.80;99.90
9949;DHT22;5013;51.840;8.276;2023-08-07T03:40:43;14.70;99.90
9949;DHT22;5013;51.840;8.276;2023-08-07T03:43:09;14.70;99.90
9949;DHT22;5013;51.840;8.276;2023-08-07T03:45:35;14.70;99.90
9949;DHT22;5013;51.840;8.276;2023-08-07T03:48:00;14.70;99.90
9949;DHT22;5013;51.840;8.276;2023-08-07T03:50:26;14.70;99.90
9949;DHT22;5013;51.840;8.276;2023-08-07T03:52:52;14.70;99.90
9949;DHT22;5013;51.840;8.276;2023-08-07T03:55:17;14.70;99.90
9949;DHT22;5013;51.840;8.276;2023-08-07T03:57:43;14.70;99.90
9949;DHT22;5013;51.840;8.276;2023-08-07T04:00:10;14.60;99.90
9949;DHT22;5013;51.840;8.276;2023-08-07T04:02:35;14.60;99.90
9949;DHT22;5013;51.840;8.276;2023-08-07T04:05:01;14.50;99.90
9949;DHT22;5013;51.840;8.276;2023-08-07T04:07:26;14.60;99.90
9949;DHT22;5013;51.840;8.276;2023-08-07T04:09:52;14.50;99.90
9949;DHT22;5013;51.840;8.276;2023-08-07T04:12:18;14.50;99.90
9949;DHT22;5013;51.840;8.276;2023-08-07T04:14:43;14.50;99.90
9949;DHT22;5013;51.840;8.276;2023-08-07T04:17:09;14.50;99.90
9949;DHT22;5013;51.840;8.276;2023-08-07T04:19:34;14.50;99.90
9949;DHT22;5013;51.840;8.276;2023-08-07T04:22:00;14.50;99.90
9949;DHT22;5013;51.840;8.276;2023-08-07T04:24:25;14.50;99.90
9949;DHT22;5013;51.840;8.276;2023-08-07T04:26:51;14.50;99.90
9949;DHT22;5013;51.840;8.276;2023-08-07T04:29:17;14.50;99.90
9949;DHT22;5013;51.840;8.276;2023-08-07T04:31:42;14.50;99.90
9949;DHT22;5013;51.840;8.276;2023-08-07T04:34:08;14.50;99.90
9949;DHT22;5013;51.840;8.276;2023-08-07T04:36:34;14.50;99.90
9949;DHT22;5013;51.840;8.276;2023-08-07T04:38:59;14.50;99.90
9949;DHT22;5013;51.840;8.276;2023-08-07T04:41:25;14.50;99.90
9949;DHT22;5013;51.840;8.276;2023-08-07T04:43:50;14.50;99.90
9949;DHT22;5013;51.840;8.276;2023-08-07T04:46:16;14.50;99.90
9949;DHT22;5013;51.840;8.276;2023-08-07T04:48:42;14.50;99.90
9949;DHT22;5013;51.840;8.276;2023-08-07T04:51:07;14.50;99.90
9949;DHT22;5013;51.840;8.276;2023-08-07T04:53:33;14.50;99.90
9949;DHT22;5013;51.840;8.276;2023-08-07T04:56:02;14.60;99.90
9949;DHT22;5013;51.840;8.276;2023-08-07T04:58:27;14.60;99.90
9949;DHT22;5013;51.840;8.276;2023-08-07T05:00:57;14.50;99.90
9949;DHT22;5013;51.840;8.276;2023-08-07T05:03:23;14.60;99.90
9949;DHT22;5013;51.840;8.276;2023-08-07T05:05:49;14.50;99.90
9949;DHT22;5013;51.840;8.276;2023-08-07T05:08:15;14.60;99.90
9949;DHT22;5013;51.840;8.276;2023-08-07T05:10:40;14.60;99.90
9949;DHT22;5013;51.840;8.276;2023-08-07T05:13:06;14.60;99.90
9949;DHT22;5013;51.840;8.276;2023-08-07T05:15:31;14.60;99.90
9949;DHT22;5013;51.840;8.276;2023-08-07T05:17:57;14.60;99.90
9949;DHT22;5013;51.840;8.276;2023-08-07T05:20:23;14.60;99.90
9949;DHT22;5013;51.840;8.276;2023-08-07T05:22:48;14.60;99.90
9949;DHT22;5013;51.840;8.276;2023-08-07T05:25:15;14.60;99.90
9949;DHT22;5013;51.840;8.276;2023-08-07T05:27:45;14.60;99.90
9949;DHT22;5013;51.840;8.276;2023-08-07T05:30:11;14.70;99.90
9949;DHT22;5013;51.840;8.276;2023-08-07T05:32:37;14.70;99.90
9949;DHT22;5013;51.840;8.276;2023-08-07T05:35:06;14.70;99.90
9949;DHT22;5013;51.840;8.276;2023-08-07T05:37:33;14.70;99.90
9949;DHT22;5013;51.840;8.276;2023-08-07T05:39:59;14.80;99.90
9949;DHT22;5013;51.840;8.276;2023-08-07T05:42:25;14.90;99.90
9949;DHT22;5013;51.840;8.276;2023-08-07T05:44:50;14.90;99.90
9949;DHT22;5013;51.840;8.276;2023-08-07T05:47:16;14.90;99.90
9949;DHT22;5013;51.840;8.276;2023-08-07T05:49:42;15.00;95.60
9949;DHT22;5013;51.840;8.276;2023-08-07T05:52:08;15.00;12.50
9949;DHT22;5013;51.840;8.276;2023-08-07T05:54:33;14.90;44.50
9949;DHT22;5013;51.840;8.276;2023-08-07T05:56:59;14.90;71.50
9949;DHT22;5013;51.840;8.276;2023-08-07T05:59:25;14.90;99.90
9949;DHT22;5013;51.840;8.276;2023-08-07T06:01:51;14.90;99.90
9949;DHT22;5013;51.840;8.276;2023-08-07T06:04:17;15.00;99.90
9949;DHT22;5013;51.840;8.276;2023-08-07T06:06:42;15.00;99.90
9949;DHT22;5013;51.840;8.276;2023-08-07T06:09:08;14.90;99.90
9949;DHT22;5013;51.840;8.276;2023-08-07T06:11:34;14.90;99.90
9949;DHT22;5013;51.840;8.276;2023-08-07T06:14:00;14.90;99.90
9949;DHT22;5013;51.840;8.276;2023-08-07T06:16:25;14.90;99.90
9949;DHT22;5013;51.840;8.276;2023-08-07T06:18:51;14.80;99.90
9949;DHT22;5013;51.840;8.276;2023-08-07T06:21:17;14.80;99.90
9949;DHT22;5013;51.840;8.276;2023-08-07T06:23:42;14.80;99.90
9949;DHT22;5013;51.840;8.276;2023-08-07T06:26:08;14.90;99.90
9949;DHT22;5013;51.840;8.276;2023-08-07T06:28:34;14.90;99.90
9949;DHT22;5013;51.840;8.276;2023-08-07T06:31:09;14.90;99.90
9949;DHT22;5013;51.840;8.276;2023-08-07T06:33:35;14.90;96.20
9949;DHT22;5013;51.840;8.276;2023-08-07T06:36:02;14.90;53.30
9949;DHT22;5013;51.840;8.276;2023-08-07T06:38:28;14.90;88.30
9949;DHT22;5013;51.840;8.276;2023-08-07T06:40:53;15.10;70.80
9949;DHT22;5013;51.840;8.276;2023-08-07T06:43:19;15.40;57.00
9949;DHT22;5013;51.840;8.276;2023-08-07T06:45:55;15.40;1.00
9949;DHT22;5013;51.840;8.276;2023-08-07T06:48:21;15.60;1.00
9949;DHT22;5013;51.840;8.276;2023-08-07T06:50:47;15.60;1.00
9949;DHT22;5013;51.840;8.276;2023-08-07T06:53:13;15.70;1.00
9949;DHT22;5013;51.840;8.276;2023-08-07T06:55:41;15.60;1.00
9949;DHT22;5013;51.840;8.276;2023-08-07T06:58:06;15.70;99.90
9949;DHT22;5013;51.840;8.276;2023-08-07T07:00:32;15.90;99.90
9949;DHT22;5013;51.840;8.276;2023-08-07T07:02:59;16.10;1.00
9949;DHT22;5013;51.840;8.276;2023-08-07T07:05:24;16.10;1.00
9949;DHT22;5013;51.840;8.276;2023-08-07T07:07:50;16.10;27.80
9949;DHT22;5013;51.840;8.276;2023-08-07T07:10:16;16.10;52.80
9949;DHT22;5013;51.840;8.276;2023-08-07T07:12:41;16.00;1.00
9949;DHT22;5013;51.840;8.276;2023-08-07T07:15:07;15.90;92.00
9949;DHT22;5013;51.840;8.276;2023-08-07T07:17:33;15.90;99.90
9949;DHT22;5013;51.840;8.276;2023-08-07T07:19:58;15.90;99.90
9949;DHT22;5013;51.840;8.276;2023-08-07T07:22:24;16.00;99.90
9949;DHT22;5013;51.840;8.276;2023-08-07T07:24:49;16.00;99.90
9949;DHT22;5013;51.840;8.276;2023-08-07T07:27:15;16.10;99.90
9949;DHT22;5013;51.840;8.276;2023-08-07T07:29:41;16.00;1.00
9949;DHT22;5013;51.840;8.276;2023-08-07T07:32:07;15.90;99.90
9949;DHT22;5013;51.840;8.276;2023-08-07T07:34:32;16.00;1.00
9949;DHT22;5013;51.840;8.276;2023-08-07T07:36:58;16.00;99.90
9949;DHT22;5013;51.840;8.276;2023-08-07T07:39:24;15.90;99.90
9949;DHT22;5013;51.840;8.276;2023-08-07T07:41:50;15.70;99.90
9949;DHT22;5013;51.840;8.276;2023-08-07T07:44:15;15.70;1.00
9949;DHT22;5013;51.840;8.276;2023-08-07T07:46:41;15.80;1.00
9949;DHT22;5013;51.840;8.276;2023-08-07T07:49:06;15.80;1.00
9949;DHT22;5013;51.840;8.276;2023-08-07T07:51:32;15.90;1.00
9949;DHT22;5013;51.840;8.276;2023-08-07T07:53:58;15.80;1.00
9949;DHT22;5013;51.840;8.276;2023-08-07T07:56:24;16.00;1.00
9949;DHT22;5013;51.840;8.276;2023-08-07T07:58:49;16.10;99.90
9949;DHT22;5013;51.840;8.276;2023-08-07T08:01:15;16.20;99.90
9949;DHT22;5013;51.840;8.276;2023-08-07T08:03:40;16.20;99.90
9949;DHT22;5013;51.840;8.276;2023-08-07T08:06:06;16.30;99.90
9949;DHT22;5013;51.840;8.276;2023-08-07T08:08:32;16.20;99.90
9949;DHT22;5013;51.840;8.276;2023-08-07T08:10:57;16.30;99.90
9949;DHT22;5013;51.840;8.276;2023-08-07T08:13:23;16.30;1.00
9949;DHT22;5013;51.840;8.276;2023-08-07T08:15:50;16.40;1.00
9949;DHT22;5013;51.840;8.276;2023-08-07T08:18:16;16.40;1.00
9949;DHT22;5013;51.840;8.276;2023-08-07T08:20:42;16.40;1.00
9949;DHT22;5013;51.840;8.276;2023-08-07T08:23:07;16.50;1.00
9949;DHT22;5013;51.840;8.276;2023-08-07T08:25:33;16.50;1.00
9949;DHT22;5013;51.840;8.276;2023-08-07T08:27:59;16.50;1.00
9949;DHT22;5013;51.840;8.276;2023-08-07T08:30:26;16.60;1.00
9949;DHT22;5013;51.840;8.276;2023-08-07T08:32:51;16.60;1.00
9949;DHT22;5013;51.840;8.276;2023-08-07T08:35:17;16.80;99.90
9949;DHT22;5013;51.840;8.276;2023-08-07T08:37:43;17.00;1.00
9949;DHT22;5013;51.840;8.276;2023-08-07T08:40:09;16.90;1.00
9949;DHT22;5013;51.840;8.276;2023-08-07T08:42:39;17.10;99.90
9949;DHT22;5013;51.840;8.276;2023-08-07T08:45:05;17.40;99.90
9949;DHT22;5013;51.840;8.276;2023-08-07T08:47:32;17.70;1.00
9949;DHT22;5013;51.840;8.276;2023-08-07T08:50:06;18.10;92.80
9949;DHT22;5013;51.840;8.276;2023-08-07T08:52:34;18.40;99.90
9949;DHT22;5013;51.840;8.276;2023-08-07T08:55:01;18.40;99.90
9949;DHT22;5013;51.840;8.276;2023-08-07T08:57:27;18.40;99.90
9949;DHT22;5013;51.840;8.276;2023-08-07T08:59:53;18.00;1.00
9949;DHT22;5013;51.840;8.276;2023-08-07T09:02:19;17.90;1.00
9949;DHT22;5013;51.840;8.276;2023-08-07T09:04:45;17.60;1.00
9949;DHT22;5013;51.840;8.276;2023-08-07T09:07:12;17.40;1.00
9949;DHT22;5013;51.840;8.276;2023-08-07T09:09:39;17.30;99.90
9949;DHT22;5013;51.840;8.276;2023-08-07T09:12:07;17.20;1.00
9949;DHT22;5013;51.840;8.276;2023-08-07T09:14:37;17.00;99.90
9949;DHT22;5013;51.840;8.276;2023-08-07T09:17:05;17.00;99.90
9949;DHT22;5013;51.840;8.276;2023-08-07T09:19:31;17.20;1.00
9949;DHT22;5013;51.840;8.276;2023-08-07T09:21:56;17.40;1.00
9949;DHT22;5013;51.840;8.276;2023-08-07T09:24:22;17.80;1.00
9949;DHT22;5013;51.840;8.276;2023-08-07T09:26:48;17.90;1.00
9949;DHT22;5013;51.840;8.276;2023-08-07T09:29:16;18.10;1.00
9949;DHT22;5013;51.840;8.276;2023-08-07T09:31:43;18.10;1.00
9949;DHT22;5013;51.840;8.276;2023-08-07T09:34:11;18.00;99.90
9949;DHT22;5013;51.840;8.276;2023-08-07T09:36:39;17.40;99.90
9949;DHT22;5013;51.840;8.276;2023-08-07T09:39:04;17.30;1.00
9949;DHT22;5013;51.840;8.276;2023-08-07T09:41:30;17.10;99.90
9949;DHT22;5013;51.840;8.276;2023-08-07T09:43:57;17.00;1.00
9949;DHT22;5013;51.840;8.276;2023-08-07T09:46:23;17.00;1.00
9949;DHT22;5013;51.840;8.276;2023-08-07T09:48:50;16.90;1.00
9949;DHT22;5013;51.840;8.276;2023-08-07T09:51:16;17.10;1.00
9949;DHT22;5013;51.840;8.276;2023-08-07T09:53:41;17.00;1.00
9949;DHT22;5013;51.840;8.276;2023-08-07T09:56:07;17.00;4.10
9949;DHT22;5013;51.840;8.276;2023-08-07T09:58:34;17.20;99.90
9949;DHT22;5013;51.840;8.276;2023-08-07T10:01:02;17.20;1.00
9949;DHT22;5013;51.840;8.276;2023-08-07T10:03:28;17.40;1.00
9949;DHT22;5013;51.840;8.276;2023-08-07T10:05:54;17.50;1.00
9949;DHT22;5013;51.840;8.276;2023-08-07T10:08:21;17.70;99.90
9949;DHT22;5013;51.840;8.276;2023-08-07T10:10:47;18.10;1.00
9949;DHT22;5013;51.840;8.276;2023-08-07T10:13:13;18.20;98.60
9949;DHT22;5013;51.840;8.276;2023-08-07T10:15:39;18.50;1.00
9949;DHT22;5013;51.840;8.276;2023-08-07T10:18:07;18.50;1.00
9949;DHT22;5013;51.840;8.276;2023-08-07T10:20:33;18.20;1.00
9949;DHT22;5013;51.840;8.276;2023-08-07T10:23:04;18.20;1.00
9949;DHT22;5013;51.840;8.276;2023-08-07T10:25:32;18.00;1.00
9949;DHT22;5013;51.840;8.276;2023-08-07T10:27:59;18.00;1.00
9949;DHT22;5013;51.840;8.276;2023-08-07T10:30:26;18.30;1.00
9949;DHT22;5013;51.840;8.276;2023-08-07T10:32:53;18.40;99.90
9949;DHT22;5013;51.840;8.276;2023-08-07T10:35:30;18.10;99.90
9949;DHT22;5013;51.840;8.276;2023-08-07T10:38:08;17.80;93.10
9949;DHT22;5013;51.840;8.276;2023-08-07T10:41:07;18.00;1.00
9949;DHT22;5013;51.840;8.276;2023-08-07T10:43:41;18.60;99.90
9949;DHT22;5013;51.840;8.276;2023-08-07T10:46:11;18.70;1.00
9949;DHT22;5013;51.840;8.276;2023-08-07T10:48:47;18.90;1.00
9949;DHT22;5013;51.840;8.276;2023-08-07T10:51:19;19.20;1.00
9949;DHT22;5013;51.840;8.276;2023-08-07T10:53:47;19.20;99.90
9949;DHT22;5013;51.840;8.276;2023-08-07T10:56:30;19.00;1.00
9949;DHT22;5013;51.840;8.276;2023-08-07T10:58:56;18.80;27.30
9949;DHT22;5013;51.840;8.276;2023-08-07T11:04:05;19.00;99.90
9949;DHT22;5013;51.840;8.276;2023-08-07T11:06:32;19.10;1.00
9949;DHT22;5013;51.840;8.276;2023-08-07T11:09:02;19.20;32.50
9949;DHT22;5013;51.840;8.276;2023-08-07T11:11:30;19.40;99.90
9949;DHT22;5013;51.840;8.276;2023-08-07T11:14:00;18.90;1.00
9949;DHT22;5013;51.840;8.276;2023-08-07T11:16:27;17.80;1.00
9949;DHT22;5013;51.840;8.276;2023-08-07T11:18:54;17.30;99.90
9949;DHT22;5013;51.840;8.276;2023-08-07T11:21:19;16.80;1.00
9949;DHT22;5013;51.840;8.276;2023-08-07T11:23:45;16.20;91.50
9949;DHT22;5013;51.840;8.276;2023-08-07T11:26:12;16.20;1.00
9949;DHT22;5013;51.840;8.276;2023-08-07T11:28:38;16.30;99.90
9949;DHT22;5013;51.840;8.276;2023-08-07T11:31:03;16.50;99.90
9949;DHT22;5013;51.840;8.276;2023-08-07T11:33:29;16.50;1.00
9949;DHT22;5013;51.840;8.276;2023-08-07T11:35:55;16.70;99.90
9949;DHT22;5013;51.840;8.276;2023-08-07T11:41:03;16.90;99.90
9949;DHT22;5013;51.840;8.276;2023-08-07T11:43:29;17.00;1.00
9949;DHT22;5013;51.840;8.276;2023-08-07T11:45:57;17.00;99.90
9949;DHT22;5013;51.840;8.276;2023-08-07T11:48:25;17.20;99.90
9949;DHT22;5013;51.840;8.276;2023-08-07T11:50:52;17.60;1.00
9949;DHT22;5013;51.840;8.276;2023-08-07T11:53:19;17.80;1.00
9949;DHT22;5013;51.840;8.276;2023-08-07T11:55:52;18.00;1.00
9949;DHT22;5013;51.840;8.276;2023-08-07T11:58:19;18.30;99.90
9949;DHT22;5013;51.840;8.276;2023-08-07T12:00:46;18.30;1.00
9949;DHT22;5013;51.840;8.276;2023-08-07T12:03:28;18.60;99.90
9949;DHT22;5013;51.840;8.276;2023-08-07T12:05:56;19.00;1.00
9949;DHT22;5013;51.840;8.276;2023-08-07T12:08:22;19.40;26.30
9949;DHT22;5013;51.840;8.276;2023-08-07T12:10:53;19.40;99.90
9949;DHT22;5013;51.840;8.276;2023-08-07T12:13:23;19.10;1.00
9949;DHT22;5013;51.840;8.276;2023-08-07T12:15:51;18.90;99.90
9949;DHT22;5013;51.840;8.276;2023-08-07T12:18:19;18.60;99.90
9949;DHT22;5013;51.840;8.276;2023-08-07T12:20:46;18.20;1.00
9949;DHT22;5013;51.840;8.276;2023-08-07T12:23:15;18.00;1.00
9949;DHT22;5013;51.840;8.276;2023-08-07T12:25:42;17.80;1.00
9949;DHT22;5013;51.840;8.276;2023-08-07T12:28:07;17.70;1.00
9949;DHT22;5013;51.840;8.276;2023-08-07T12:30:37;17.70;1.00
9949;DHT22;5013;51.840;8.276;2023-08-07T12:33:03;17.90;1.00
9949;DHT22;5013;51.840;8.276;2023-08-07T12:35:30;18.20;99.90
9949;DHT22;5013;51.840;8.276;2023-08-07T12:37:56;18.50;48.30
9949;DHT22;5013;51.840;8.276;2023-08-07T12:40:22;19.00;99.90
9949;DHT22;5013;51.840;8.276;2023-08-07T12:42:51;19.20;99.90
9949;DHT22;5013;51.840;8.276;2023-08-07T12:45:17;19.00;99.90
9949;DHT22;5013;51.840;8.276;2023-08-07T12:47:45;19.10;99.90
9949;DHT22;5013;51.840;8.276;2023-08-07T12:50:11;19.20;99.90
9949;DHT22;5013;51.840;8.276;2023-08-07T12:52:37;19.20;99.90
9949;DHT22;5013;51.840;8.276;2023-08-07T12:55:02;19.30;99.90
9949;DHT22;5013;51.840;8.276;2023-08-07T12:57:29;19.10;97.20
9949;DHT22;5013;51.840;8.276;2023-08-07T12:59:54;18.80;99.90
9949;DHT22;5013;51.840;8.276;2023-08-07T13:02:20;18.40;99.90
9949;DHT22;5013;51.840;8.276;2023-08-07T13:04:45;18.20;99.90
9949;DHT22;5013;51.840;8.276;2023-08-07T13:07:11;18.00;99.90
9949;DHT22;5013;51.840;8.276;2023-08-07T13:09:37;18.10;99.90
9949;DHT22;5013;51.840;8.276;2023-08-07T13:12:03;18.20;99.90
9949;DHT22;5013;51.840;8.276;2023-08-07T13:14:29;18.60;99.90
9949;DHT22;5013;51.840;8.276;2023-08-07T13:16:55;19.00;99.90
9949;DHT22;5013;51.840;8.276;2023-08-07T13:19:20;19.10;99.90
9949;DHT22;5013;51.840;8.276;2023-08-07T13:21:46;19.20;99.90
9949;DHT22;5013;51.840;8.276;2023-08-07T13:24:12;19.30;96.40
9949;DHT22;5013;51.840;8.276;2023-08-07T13:26:38;19.30;41.70
9949;DHT22;5013;51.840;8.276;2023-08-07T13:29:10;19.00;47.80
9949;DHT22;5013;51.840;8.276;2023-08-07T13:31:36;19.00;93.00
9949;DHT22;5013;51.840;8.276;2023-08-07T13:34:01;18.90;70.90
9949;DHT22;5013;51.840;8.276;2023-08-07T13:36:36;18.90;43.90
9949;DHT22;5013;51.840;8.276;2023-08-07T13:39:02;19.10;41.60
9949;DHT22;5013;51.840;8.276;2023-08-07T13:41:28;19.30;35.10
9949;DHT22;5013;51.840;8.276;2023-08-07T13:43:53;19.40;19.20
9949;DHT22;5013;51.840;8.276;2023-08-07T13:46:19;19.40;53.60
9949;DHT22;5013;51.840;8.276;2023-08-07T13:48:45;19.70;56.30
9949;DHT22;5013;51.840;8.276;2023-08-07T13:51:11;19.80;11.60
9949;DHT22;5013;51.840;8.276;2023-08-07T13:53:37;19.80;1.00
9949;DHT22;5013;51.840;8.276;2023-08-07T13:56:02;19.70;1.00
9949;DHT22;5013;51.840;8.276;2023-08-07T13:58:28;19.70;1.00
9949;DHT22;5013;51.840;8.276;2023-08-07T14:00:54;19.40;1.00
9949;DHT22;5013;51.840;8.276;2023-08-07T14:03:20;19.50;1.00
9949;DHT22;5013;51.840;8.276;2023-08-07T14:05:46;19.50;1.00
9949;DHT22;5013;51.840;8.276;2023-08-07T14:08:11;19.80;1.00
9949;DHT22;5013;51.840;8.276;2023-08-07T14:10:37;20.10;1.00
9949;DHT22;5013;51.840;8.276;2023-08-07T14:13:04;20.20;1.00
9949;DHT22;5013;51.840;8.276;2023-08-07T14:15:30;19.90;1.00
9949;DHT22;5013;51.840;8.276;2023-08-07T14:17:56;19.90;1.00
9949;DHT22;5013;51.840;8.276;2023-08-07T14:20:23;19.80;1.00
9949;DHT22;5013;51.840;8.276;2023-08-07T14:22:50;19.30;1.00
9949;DHT22;5013;51.840;8.276;2023-08-07T14:25:15;19.10;1.00
9949;DHT22;5013;51.840;8.276;2023-08-07T14:27:41;19.30;1.00
9949;DHT22;5013;51.840;8.276;2023-08-07T14:30:07;19.60;1.00
9949;DHT22;5013;51.840;8.276;2023-08-07T14:32:33;19.60;1.00
9949;DHT22;5013;51.840;8.276;2023-08-07T14:34:58;19.50;1.00
9949;DHT22;5013;51.840;8.276;2023-08-07T14:37:24;19.60;1.00
9949;DHT22;5013;51.840;8.276;2023-08-07T14:39:49;19.30;1.00
9949;DHT22;5013;51.840;8.276;2023-08-07T14:42:15;19.20;9.90
9949;DHT22;5013;51.840;8.276;2023-08-07T14:44:41;19.20;53.30
9949;DHT22;5013;51.840;8.276;2023-08-07T14:47:07;19.20;33.60
9949;DHT22;5013;51.840;8.276;2023-08-07T14:49:32;19.30;56.50
9949;DHT22;5013;51.840;8.276;2023-08-07T14:51:58;19.40;21.90
9949;DHT22;5013;51.840;8.276;2023-08-07T14:54:23;19.50;1.00
9949;DHT22;5013;51.840;8.276;2023-08-07T14:56:49;19.40;1.00
9949;DHT22;5013;51.840;8.276;2023-08-07T14:59:15;19.40;1.00
9949;DHT22;5013;51.840;8.276;2023-08-07T15:01:40;19.50;1.00
9949;DHT22;5013;51.840;8.276;2023-08-07T15:04:06;19.30;1.00
9949;DHT22;5013;51.840;8.276;2023-08-07T15:06:32;19.40;1.00
9949;DHT22;5013;51.840;8.276;2023-08-07T15:08:58;19.70;1.00
9949;DHT22;5013;51.840;8.276;2023-08-07T15:11:24;19.80;1.00
9949;DHT22;5013;51.840;8.276;2023-08-07T15:13:49;20.00;1.00
9949;DHT22;5013;51.840;8.276;2023-08-07T15:16:15;19.90;1.00
9949;DHT22;5013;51.840;8.276;2023-08-07T15:18:41;19.90;1.00
9949;DHT22;5013;51.840;8.276;2023-08-07T15:21:07;19.80;1.00
9949;DHT22;5013;51.840;8.276;2023-08-07T15:23:32;19.80;1.00
9949;DHT22;5013;51.840;8.276;2023-08-07T15:25:58;19.80;1.00
9949;DHT22;5013;51.840;8.276;2023-08-07T15:28:24;19.80;1.00
9949;DHT22;5013;51.840;8.276;2023-08-07T15:30:50;20.00;1.00
9949;DHT22;5013;51.840;8.276;2023-08-07T15:33:17;20.00;1.00
9949;DHT22;5013;51.840;8.276;2023-08-07T15:35:43;20.10;1.00
9949;DHT22;5013;51.840;8.276;2023-08-07T15:38:08;20.30;1.00
9949;DHT22;5013;51.840;8.276;2023-08-07T15:40:40;20.40;1.00
9949;DHT22;5013;51.840;8.276;2023-08-07T15:43:07;20.50;1.00
9949;DHT22;5013;51.840;8.276;2023-08-07T15:45:33;20.50;1.00
9949;DHT22;5013;51.840;8.276;2023-08-07T15:47:59;20.40;1.00
9949;DHT22;5013;51.840;8.276;2023-08-07T15:50:24;20.50;1.00
9949;DHT22;5013;51.840;8.276;2023-08-07T15:52:50;20.30;1.00
9949;DHT22;5013;51.840;8.276;2023-08-07T15:55:15;20.20;1.00
9949;DHT22;5013;51.840;8.276;2023-08-07T15:57:41;20.00;1.00
9949;DHT22;5013;51.840;8.276;2023-08-07T16:00:07;20.00;1.00
9949;DHT22;5013;51.840;8.276;2023-08-07T16:02:33;19.90;1.00
9949;DHT22;5013;51.840;8.276;2023-08-07T16:04:59;19.80;1.00
9949;DHT22;5013;51.840;8.276;2023-08-07T16:07:24;19.70;1.00
9949;DHT22;5013;51.840;8.276;2023-08-07T16:09:50;19.50;1.00
9949;DHT22;5013;51.840;8.276;2023-08-07T16:12:15;19.60;1.00